createdAt,value
2023-01-12T00:02:14.657Z,16.80
2023-01-12T00:04:35.339Z,17.38
2023-01-12T00:06:55.236Z,19.02
2023-01-12T00:09:14.953Z,20.02
2023-01-12T00:11:39.530Z,17.75
2023-01-12T00:13:59.358Z,21.35
2023-01-12T00:16:34.459Z,21.38
2023-01-12T00:18:54.284Z,20.02
2023-01-12T00:21:14.920Z,13.25
2023-01-12T00:23:34.728Z,11.35
2023-01-12T00:25:54.921Z,12.27
2023-01-12T00:28:14.957Z,12.65
2023-01-12T00:30:34.495Z,11.65
2023-01-12T00:32:54.213Z,11.00
2023-01-12T00:35:16.619Z,11.90
2023-01-12T00:37:36.708Z,13.23
2023-01-12T00:40:02.642Z,17.45
2023-01-12T00:42:41.295Z,16.13
2023-01-12T00:45:19.586Z,17.23
2023-01-12T00:47:41.873Z,17.58
2023-01-12T00:50:01.858Z,19.00
2023-01-12T00:52:30.415Z,19.60
2023-01-12T00:54:50.942Z,18.60
2023-01-12T00:57:13.378Z,18.73
2023-01-12T00:59:36.310Z,21.10
2023-01-12T01:04:15.758Z,21.35
2023-01-12T01:06:39.209Z,21.35
2023-01-12T01:08:59.014Z,19.65
2023-01-12T01:11:19.453Z,19.77
2023-01-12T01:13:40.773Z,20.92
2023-01-12T01:16:02.624Z,20.23
2023-01-12T01:18:22.803Z,23.13
2023-01-12T01:20:46.754Z,21.38
2023-01-12T01:23:06.548Z,22.83
2023-01-12T01:25:26.795Z,24.08
2023-01-12T01:27:47.034Z,24.45
2023-01-12T01:30:07.397Z,25.13
2023-01-12T01:32:27.465Z,23.05
2023-01-12T01:34:47.602Z,24.55
2023-01-12T01:37:07.350Z,20.75
2023-01-12T01:39:26.896Z,25.95
2023-01-12T01:41:47.494Z,19.92
2023-01-12T01:44:29.375Z,21.92
2023-01-12T01:47:01.087Z,20.92
2023-01-12T01:49:42.429Z,20.75
2023-01-12T01:52:12.246Z,16.90
2023-01-12T01:54:37.043Z,14.27
2023-01-12T01:56:57.386Z,15.02
2023-01-12T01:59:21.846Z,16.77
2023-01-12T02:01:41.823Z,14.73
2023-01-12T02:04:02.599Z,16.33
2023-01-12T02:06:25.585Z,18.77
2023-01-12T02:11:26.287Z,16.58
2023-01-12T02:14:04.836Z,18.55
2023-01-12T02:16:29.924Z,18.35
2023-01-12T02:19:22.011Z,17.25
2023-01-12T02:21:55.870Z,19.58
2023-01-12T02:24:25.044Z,19.85
2023-01-12T02:26:53.811Z,20.80
2023-01-12T02:29:41.464Z,20.73
2023-01-12T02:32:39.133Z,21.45
2023-01-12T02:35:08.188Z,20.30
2023-01-12T02:37:43.241Z,21.73
2023-01-12T02:40:09.029Z,22.40
2023-01-12T02:42:40.617Z,21.75
2023-01-12T02:45:25.558Z,22.88
2023-01-12T02:47:48.388Z,23.40
2023-01-12T02:50:15.644Z,20.63
2023-01-12T02:52:35.594Z,23.55
2023-01-12T02:54:57.779Z,22.17
2023-01-12T02:57:21.174Z,22.52
2023-01-12T03:02:18.475Z,19.67
2023-01-12T03:04:39.631Z,19.48
2023-01-12T03:06:59.540Z,18.83
2023-01-12T03:09:19.862Z,19.17
2023-01-12T03:11:43.461Z,17.67
2023-01-12T03:14:04.633Z,17.95
2023-01-12T03:16:28.618Z,17.23
2023-01-12T03:18:56.571Z,16.15
2023-01-12T03:21:41.681Z,15.00
2023-01-12T03:24:10.424Z,13.73
2023-01-12T03:26:33.820Z,13.93
2023-01-12T03:31:18.545Z,15.75
2023-01-12T03:33:43.278Z,16.45
2023-01-12T03:36:18.779Z,17.55
2023-01-12T03:39:05.951Z,18.80
2023-01-12T03:41:44.561Z,18.98
2023-01-12T03:44:08.223Z,15.23
2023-01-12T03:46:43.801Z,14.27
2023-01-12T03:49:31.508Z,16.25
2023-01-12T03:51:52.619Z,11.18
2023-01-12T03:54:14.428Z,10.23
2023-01-12T03:56:35.978Z,8.77
2023-01-12T03:58:56.570Z,13.70
2023-01-12T04:01:16.607Z,16.52
2023-01-12T04:03:36.533Z,14.77
2023-01-12T04:05:56.762Z,14.77
2023-01-12T04:08:16.847Z,9.68
2023-01-12T04:10:36.736Z,17.65
2023-01-12T04:12:56.551Z,13.52
2023-01-12T04:15:16.214Z,14.25
2023-01-12T04:17:35.905Z,14.85
2023-01-12T04:19:55.682Z,14.80
2023-01-12T04:22:34.413Z,18.10
2023-01-12T04:24:54.638Z,17.13
2023-01-12T04:27:15.932Z,17.52
2023-01-12T04:29:35.917Z,16.40
2023-01-12T04:31:56.094Z,15.60
2023-01-12T04:34:16.498Z,15.10
2023-01-12T04:36:36.147Z,16.65
2023-01-12T04:38:56.445Z,17.00
2023-01-12T04:41:16.782Z,13.45
2023-01-12T04:43:36.627Z,13.35
2023-01-12T04:45:57.033Z,15.20
2023-01-12T04:48:18.732Z,15.32
2023-01-12T04:50:41.843Z,13.30
2023-01-12T04:53:03.606Z,14.20
2023-01-12T04:55:23.916Z,14.45
2023-01-12T04:57:44.101Z,11.25
2023-01-12T05:00:04.953Z,12.02
2023-01-12T05:02:25.026Z,10.73
2023-01-12T05:04:47.114Z,10.95
2023-01-12T05:07:07.059Z,10.90
2023-01-12T05:09:49.710Z,10.15
2023-01-12T05:12:09.703Z,8.98
2023-01-12T05:14:29.869Z,11.65
2023-01-12T05:16:49.975Z,13.18
2023-01-12T05:19:10.195Z,11.77
2023-01-12T05:21:30.189Z,6.93
2023-01-12T05:23:52.110Z,5.93
2023-01-12T05:26:11.867Z,5.32
2023-01-12T05:28:32.838Z,6.03
2023-01-12T05:30:52.640Z,16.48
2023-01-12T05:33:15.879Z,11.85
2023-01-12T05:35:37.973Z,8.63
2023-01-12T05:37:57.990Z,7.17
2023-01-12T05:40:18.324Z,6.75
2023-01-12T05:42:56.888Z,6.15
2023-01-12T05:45:16.596Z,13.40
2023-01-12T05:47:36.850Z,16.05
2023-01-12T05:49:57.059Z,13.43
2023-01-12T05:52:17.109Z,15.35
2023-01-12T05:54:37.157Z,10.90
2023-01-12T05:56:57.205Z,11.48
2023-01-12T05:59:17.353Z,13.10
2023-01-12T06:01:39.762Z,10.43
2023-01-12T06:04:00.993Z,10.03
2023-01-12T06:06:23.059Z,9.60
2023-01-12T06:08:42.790Z,8.52
2023-01-12T06:11:03.786Z,8.88
2023-01-12T06:13:42.231Z,8.75
2023-01-12T06:16:05.031Z,17.60
2023-01-12T06:18:25.024Z,13.65
2023-01-12T06:20:45.154Z,16.55
2023-01-12T06:23:05.436Z,13.77
2023-01-12T06:25:26.039Z,12.65
2023-01-12T06:27:45.892Z,13.18
2023-01-12T06:30:08.082Z,12.63
2023-01-12T06:32:28.282Z,12.98
2023-01-12T06:34:47.915Z,12.85
2023-01-12T06:37:11.386Z,11.98
2023-01-12T06:39:31.438Z,11.25
2023-01-12T06:42:10.146Z,13.00
2023-01-12T06:44:29.913Z,13.90
2023-01-12T06:46:50.228Z,13.52
2023-01-12T06:49:10.136Z,14.63
2023-01-12T06:51:30.507Z,12.73
2023-01-12T06:53:50.707Z,12.00
2023-01-12T06:56:10.915Z,14.60
2023-01-12T06:58:31.211Z,15.20
2023-01-12T07:00:50.943Z,20.70
2023-01-12T07:03:17.363Z,11.70
2023-01-12T07:05:37.358Z,10.73
2023-01-12T07:07:59.615Z,9.05
2023-01-12T07:10:19.611Z,10.73
2023-01-12T07:12:39.455Z,13.02
2023-01-12T07:14:59.622Z,14.27
2023-01-12T07:17:19.680Z,14.85
2023-01-12T07:19:41.577Z,9.23
2023-01-12T07:22:01.784Z,9.73
2023-01-12T07:24:21.872Z,9.77
2023-01-12T07:26:42.231Z,4.47
2023-01-12T07:29:01.956Z,4.82
2023-01-12T07:31:21.936Z,15.23
2023-01-12T07:33:42.189Z,18.83
2023-01-12T07:36:02.156Z,16.70
2023-01-12T07:38:21.957Z,13.77
2023-01-12T07:40:41.679Z,13.77
2023-01-12T07:43:06.580Z,12.63
2023-01-12T07:45:27.936Z,14.88
2023-01-12T07:47:53.108Z,11.60
2023-01-12T07:50:13.175Z,17.00
2023-01-12T07:52:33.174Z,13.25
2023-01-12T07:54:53.022Z,9.00
2023-01-12T07:57:12.746Z,7.20
2023-01-12T07:59:32.438Z,7.35
2023-01-12T08:01:54.028Z,6.22
2023-01-12T08:04:13.845Z,7.75
2023-01-12T08:06:35.006Z,8.48
2023-01-12T08:08:55.162Z,15.32
2023-01-12T08:11:14.952Z,15.85
2023-01-12T08:13:35.219Z,14.57
2023-01-12T08:15:57.189Z,12.93
2023-01-12T08:18:43.413Z,11.45
2023-01-12T08:21:09.506Z,9.35
2023-01-12T08:23:35.316Z,7.32
2023-01-12T08:26:00.760Z,7.20
2023-01-12T08:28:36.574Z,7.85
2023-01-12T08:30:56.771Z,5.78
2023-01-12T08:33:16.910Z,6.70
2023-01-12T08:35:37.433Z,6.97
2023-01-12T08:37:57.323Z,6.20
2023-01-12T08:40:17.679Z,5.90
2023-01-12T08:42:37.616Z,15.10
2023-01-12T08:44:57.268Z,17.50
2023-01-12T08:47:20.849Z,11.35
2023-01-12T08:49:41.441Z,10.73
2023-01-12T08:52:01.685Z,13.88
2023-01-12T08:54:23.511Z,27.10
2023-01-12T08:56:44.355Z,12.63
2023-01-12T08:59:04.435Z,11.18
2023-01-12T09:01:24.313Z,8.90
2023-01-12T09:03:45.163Z,10.50
2023-01-12T09:06:13.645Z,9.82
2023-01-12T09:08:34.281Z,9.98
2023-01-12T09:11:00.975Z,5.43
2023-01-12T09:13:20.696Z,5.03
2023-01-12T09:15:41.174Z,6.38
2023-01-12T09:18:00.982Z,7.28
2023-01-12T09:20:21.696Z,8.25
2023-01-12T09:22:41.565Z,7.72
2023-01-12T09:25:01.199Z,6.90
2023-01-12T09:27:21.043Z,7.18
2023-01-12T09:29:40.906Z,7.57
2023-01-12T09:32:00.882Z,9.82
2023-01-12T09:34:20.871Z,7.25
2023-01-12T09:36:41.024Z,5.50
2023-01-12T09:39:01.469Z,5.80
2023-01-12T09:42:02.050Z,8.13
2023-01-12T09:44:44.295Z,6.28
2023-01-12T09:47:08.453Z,4.00
2023-01-12T09:49:36.066Z,5.47
2023-01-12T09:51:56.284Z,12.82
2023-01-12T09:54:17.180Z,7.22
2023-01-12T09:56:51.090Z,4.25
2023-01-12T09:59:39.216Z,3.97
2023-01-12T10:01:59.510Z,4.70
2023-01-12T10:04:20.071Z,4.13
2023-01-12T10:06:40.365Z,4.03
2023-01-12T10:09:03.242Z,3.88
2023-01-12T10:12:12.481Z,5.80
2023-01-12T10:14:32.482Z,4.00
2023-01-12T10:17:41.980Z,3.80
2023-01-12T10:20:09.385Z,4.40
2023-01-12T10:22:39.191Z,3.83
2023-01-12T10:24:59.270Z,4.88
2023-01-12T10:27:19.322Z,4.72
2023-01-12T10:29:39.019Z,3.42
2023-01-12T10:31:59.236Z,4.20
2023-01-12T10:34:19.522Z,4.00
2023-01-12T10:36:48.925Z,3.65
2023-01-12T10:39:37.998Z,3.80
2023-01-12T10:42:40.092Z,5.43
2023-01-12T10:45:13.006Z,5.30
2023-01-12T10:47:33.863Z,7.40
2023-01-12T10:50:32.365Z,8.35
2023-01-12T10:53:00.476Z,3.25
2023-01-12T10:55:21.735Z,6.22
2023-01-12T10:57:44.031Z,4.10
2023-01-12T11:00:05.117Z,11.35
2023-01-12T11:02:28.333Z,4.78
2023-01-12T11:07:21.561Z,3.33
2023-01-12T11:09:44.745Z,4.10
2023-01-12T11:12:26.307Z,3.63
2023-01-12T11:15:18.313Z,5.13
2023-01-12T11:17:49.769Z,3.17
2023-01-12T11:20:24.409Z,3.97
2023-01-12T11:22:45.675Z,3.72
2023-01-12T11:25:13.979Z,6.05
2023-01-12T11:27:44.839Z,13.70
2023-01-12T11:30:25.404Z,5.35
2023-01-12T11:32:59.747Z,3.38
2023-01-12T11:35:37.563Z,3.25
2023-01-12T11:38:03.179Z,3.80
2023-01-12T11:40:34.349Z,3.55
2023-01-12T11:43:17.661Z,4.50
2023-01-12T11:45:53.059Z,2.85
2023-01-12T11:48:21.781Z,4.63
2023-01-12T11:50:42.871Z,2.47
2023-01-12T11:53:05.214Z,5.07
2023-01-12T11:55:58.019Z,3.38
2023-01-12T11:58:41.703Z,3.00
2023-01-12T12:01:19.058Z,4.28
2023-01-12T12:03:45.679Z,3.75
2023-01-12T12:06:23.665Z,1.88
2023-01-12T12:09:00.566Z,2.00
2023-01-12T12:11:51.993Z,1.55
2023-01-12T12:14:30.332Z,2.00
2023-01-12T12:16:56.684Z,1.70
2023-01-12T12:20:04.359Z,2.22
2023-01-12T12:22:27.269Z,1.90
2023-01-12T12:25:46.788Z,2.13
2023-01-12T12:28:24.600Z,1.50
2023-01-12T12:30:44.632Z,1.70
2023-01-12T12:33:39.153Z,3.03
2023-01-12T12:36:07.798Z,1.77
2023-01-12T12:38:42.504Z,1.38
2023-01-12T12:41:31.084Z,1.77
2023-01-12T12:44:44.076Z,1.60
2023-01-12T12:47:21.100Z,2.53
2023-01-12T12:49:41.535Z,2.17
2023-01-12T12:52:01.625Z,2.20
2023-01-12T12:54:23.122Z,2.25
2023-01-12T12:56:43.737Z,1.33
2023-01-12T12:59:04.316Z,1.70
2023-01-12T13:01:24.532Z,1.65
2023-01-12T13:03:49.624Z,1.27
2023-01-12T13:06:15.735Z,1.40
2023-01-12T13:08:36.161Z,1.50
2023-01-12T13:10:58.163Z,1.35
2023-01-12T13:13:33.180Z,1.40
2023-01-12T13:16:17.345Z,1.63
2023-01-12T13:19:01.706Z,1.35
2023-01-12T13:21:30.469Z,1.20
2023-01-12T13:23:51.338Z,1.10
2023-01-12T13:26:36.977Z,1.10
2023-01-12T13:29:28.307Z,1.42
2023-01-12T13:31:49.861Z,2.90
2023-01-12T13:34:51.511Z,1.40
2023-01-12T13:37:11.279Z,1.33
2023-01-12T13:39:35.161Z,1.30
2023-01-12T13:42:14.407Z,1.13
2023-01-12T13:44:36.945Z,1.20
2023-01-12T13:49:46.678Z,2.05
2023-01-12T13:52:19.014Z,1.30
2023-01-12T13:54:48.738Z,2.20
2023-01-12T13:57:21.464Z,1.40
2023-01-12T14:00:08.710Z,1.13
2023-01-12T14:02:31.892Z,2.60
2023-01-12T14:07:42.084Z,1.10
2023-01-12T14:10:32.380Z,1.73
2023-01-12T14:13:10.710Z,3.33
2023-01-12T14:15:56.848Z,2.42
2023-01-12T14:18:19.276Z,2.10
2023-01-12T14:20:54.143Z,2.58
2023-01-12T14:23:18.482Z,1.85
2023-01-12T14:25:38.248Z,1.20
2023-01-12T14:27:58.406Z,1.30
2023-01-12T14:30:19.380Z,1.33
2023-01-12T14:32:45.626Z,1.30
2023-01-12T14:35:05.380Z,1.48
2023-01-12T14:37:33.816Z,1.40
2023-01-12T14:39:54.746Z,1.52
2023-01-12T14:42:37.654Z,1.42
2023-01-12T14:45:15.953Z,14.32
2023-01-12T14:47:36.174Z,1.85
2023-01-12T14:50:06.938Z,1.40
2023-01-12T14:52:32.213Z,1.48
2023-01-12T14:54:52.064Z,2.40
2023-01-12T14:57:25.858Z,1.58
2023-01-12T14:59:47.771Z,2.63
2023-01-12T15:02:14.161Z,1.83
2023-01-12T15:04:34.244Z,1.67
2023-01-12T15:07:05.221Z,1.30
2023-01-12T15:09:27.373Z,2.00
2023-01-12T15:11:47.376Z,1.60
2023-01-12T15:14:21.326Z,2.67
2023-01-12T15:16:59.927Z,2.47
2023-01-12T15:19:38.603Z,1.67
2023-01-12T15:22:17.694Z,2.42
2023-01-12T15:24:58.287Z,2.45
2023-01-12T15:27:21.027Z,2.30
2023-01-12T15:29:40.964Z,9.25
2023-01-12T15:32:02.103Z,5.93
2023-01-12T15:34:21.973Z,3.70
2023-01-12T15:36:41.551Z,6.72
2023-01-12T15:39:01.202Z,9.88
2023-01-12T15:41:45.212Z,8.52
2023-01-12T15:44:05.363Z,16.80
2023-01-12T15:46:25.784Z,10.63
2023-01-12T15:48:46.106Z,7.88
2023-01-12T15:51:08.875Z,4.28
2023-01-12T15:53:28.485Z,7.25
2023-01-12T15:55:48.599Z,9.35
2023-01-12T15:58:08.769Z,9.43
2023-01-12T16:00:29.318Z,7.53
2023-01-12T16:02:52.700Z,8.15
2023-01-12T16:05:13.176Z,9.18
2023-01-12T16:07:32.988Z,8.13
2023-01-12T16:09:54.522Z,13.73
2023-01-12T16:12:15.097Z,6.38
2023-01-12T16:14:34.967Z,4.55
2023-01-12T16:16:56.058Z,4.43
2023-01-12T16:19:20.950Z,3.10
2023-01-12T16:21:41.163Z,3.53
2023-01-12T16:24:01.173Z,3.35
2023-01-12T16:26:21.161Z,4.32
2023-01-12T16:28:41.276Z,6.95
2023-01-12T16:31:09.654Z,8.20
2023-01-12T16:33:29.728Z,7.80
2023-01-12T16:35:49.575Z,3.90
2023-01-12T16:38:12.099Z,3.28
2023-01-12T16:40:31.789Z,3.83
2023-01-12T16:42:51.616Z,10.43
2023-01-12T16:45:11.332Z,24.90
2023-01-12T16:47:31.552Z,10.10
2023-01-12T16:49:51.782Z,11.88
2023-01-12T16:52:14.497Z,6.63
2023-01-12T16:54:40.931Z,4.50
2023-01-12T16:57:00.562Z,6.28
2023-01-12T16:59:21.165Z,8.85
2023-01-12T17:01:40.938Z,12.40
2023-01-12T17:04:01.062Z,13.07
2023-01-12T17:06:21.773Z,13.35
2023-01-12T17:08:41.879Z,17.83
2023-01-12T17:11:13.621Z,11.57
2023-01-12T17:13:33.759Z,8.23
2023-01-12T17:15:53.726Z,6.82
2023-01-12T17:18:13.783Z,8.00
2023-01-12T17:20:34.283Z,12.73
2023-01-12T17:22:54.701Z,7.25
2023-01-12T17:25:15.561Z,7.10
2023-01-12T17:27:35.459Z,5.35
2023-01-12T17:29:55.610Z,5.82
2023-01-12T17:32:16.254Z,8.32
2023-01-12T17:34:38.256Z,7.00
2023-01-12T17:37:02.308Z,8.55
2023-01-12T17:39:22.216Z,10.85
2023-01-12T17:42:00.963Z,31.73
2023-01-12T17:44:21.121Z,38.33
2023-01-12T17:46:42.740Z,33.05
2023-01-12T17:49:06.211Z,22.60
2023-01-12T17:51:26.542Z,24.02
2023-01-12T17:53:46.419Z,40.22
2023-01-12T17:56:06.927Z,10.40
2023-01-12T17:58:26.646Z,10.07
2023-01-12T18:00:46.460Z,15.02
2023-01-12T18:03:06.586Z,10.02
2023-01-12T18:05:27.181Z,9.80
2023-01-12T18:07:47.012Z,14.55
2023-01-12T18:10:09.779Z,17.27
2023-01-12T18:12:29.487Z,25.00
2023-01-12T18:14:49.071Z,20.20
2023-01-12T18:17:10.390Z,11.55
2023-01-12T18:19:30.113Z,10.27
2023-01-12T18:21:50.540Z,12.15
2023-01-12T18:24:10.589Z,15.93
2023-01-12T18:26:34.946Z,25.95
2023-01-12T18:28:57.355Z,20.73
2023-01-12T18:31:20.778Z,26.55
2023-01-12T18:33:40.701Z,30.42
2023-01-12T18:36:00.754Z,47.33
2023-01-12T18:38:20.603Z,29.45
2023-01-12T18:40:40.121Z,18.13
2023-01-12T18:43:00.154Z,22.33
2023-01-12T18:45:23.318Z,24.63
2023-01-12T18:50:39.895Z,28.80
2023-01-12T18:53:18.917Z,33.25
2023-01-12T18:55:40.680Z,15.73
2023-01-12T18:58:00.858Z,19.80
2023-01-12T19:00:21.765Z,19.58
2023-01-12T19:02:41.708Z,23.85
2023-01-12T19:05:21.496Z,27.65
2023-01-12T19:07:59.289Z,21.23
2023-01-12T19:10:19.582Z,24.65
2023-01-12T19:12:39.674Z,23.85
2023-01-12T19:15:18.465Z,22.20
2023-01-12T19:17:41.729Z,29.52
2023-01-12T19:20:05.680Z,33.15
2023-01-12T19:22:45.272Z,20.63
2023-01-12T19:25:24.014Z,11.68
2023-01-12T19:28:02.751Z,14.25
2023-01-12T19:30:22.946Z,11.18
2023-01-12T19:32:43.077Z,12.45
2023-01-12T19:35:10.848Z,16.58
2023-01-12T19:37:31.422Z,15.02
2023-01-12T19:40:02.042Z,18.85
2023-01-12T19:42:40.446Z,28.25
2023-01-12T19:45:00.191Z,35.38
2023-01-12T19:47:19.650Z,29.60
2023-01-12T19:49:39.700Z,49.58
2023-01-12T19:51:59.874Z,32.35
2023-01-12T19:54:20.484Z,37.95
2023-01-12T19:56:40.270Z,50.00
2023-01-12T19:59:00.301Z,54.05
2023-01-12T20:01:23.634Z,38.30
2023-01-12T20:06:07.221Z,20.30
2023-01-12T20:08:26.997Z,13.73
2023-01-12T20:10:56.903Z,7.82
2023-01-12T20:13:17.197Z,38.38
2023-01-12T20:15:38.213Z,35.55
2023-01-12T20:17:59.409Z,28.98
2023-01-12T20:20:19.338Z,24.08
2023-01-12T20:22:39.373Z,22.40
2023-01-12T20:25:02.014Z,22.20
2023-01-12T20:27:21.796Z,22.40
2023-01-12T20:29:42.240Z,19.48
2023-01-12T20:32:02.284Z,29.50
2023-01-12T20:34:22.301Z,26.63
2023-01-12T20:36:43.446Z,25.48
2023-01-12T20:39:03.564Z,21.77
2023-01-12T20:41:23.719Z,27.23
2023-01-12T20:43:44.428Z,28.00
2023-01-12T20:46:12.344Z,33.17
2023-01-12T20:48:31.945Z,46.17
2023-01-12T20:50:52.244Z,43.75
2023-01-12T20:53:13.254Z,30.55
2023-01-12T20:55:33.002Z,32.00
2023-01-12T20:57:52.634Z,30.33
2023-01-12T21:00:12.977Z,28.77
2023-01-12T21:02:32.966Z,23.83
2023-01-12T21:04:52.946Z,20.35
2023-01-12T21:07:12.834Z,20.80
2023-01-12T21:09:32.785Z,23.73
2023-01-12T21:11:52.597Z,21.98
2023-01-12T21:14:13.361Z,16.20
2023-01-12T21:16:33.890Z,15.40
2023-01-12T21:18:53.858Z,20.67
2023-01-12T21:21:14.373Z,20.92
2023-01-12T21:23:34.638Z,40.55
2023-01-12T21:25:54.834Z,61.78
2023-01-12T21:28:15.373Z,41.80
2023-01-12T21:30:36.787Z,40.28
2023-01-12T21:32:56.552Z,43.80
2023-01-12T21:35:17.316Z,39.05
2023-01-12T21:37:37.650Z,42.63
2023-01-12T21:39:57.347Z,48.22
2023-01-12T21:42:36.144Z,43.60
2023-01-12T21:44:56.239Z,51.45
2023-01-12T21:47:16.501Z,28.90
2023-01-12T21:49:36.345Z,25.52
2023-01-12T21:51:56.436Z,41.17
2023-01-12T21:54:16.223Z,36.55
2023-01-12T21:56:36.633Z,78.78
2023-01-12T21:58:57.359Z,30.05
2023-01-12T22:01:17.362Z,32.55
2023-01-12T22:03:37.948Z,24.17
2023-01-12T22:06:05.127Z,22.95
2023-01-12T22:08:24.994Z,24.23
2023-01-12T22:10:46.125Z,26.95
2023-01-12T22:13:09.133Z,23.10
2023-01-12T22:17:50.651Z,22.75
2023-01-12T22:20:11.978Z,19.30
2023-01-12T22:22:31.987Z,16.85
2023-01-12T22:24:52.016Z,18.45
2023-01-12T22:27:11.687Z,16.88
2023-01-12T22:29:31.977Z,16.17
2023-01-12T22:31:51.760Z,13.40
2023-01-12T22:34:12.224Z,12.32
2023-01-12T22:36:36.348Z,16.98
2023-01-12T22:38:56.136Z,22.55
2023-01-12T22:41:18.637Z,27.55
2023-01-12T22:43:41.354Z,32.00
2023-01-12T22:46:01.311Z,30.27
2023-01-12T22:48:21.429Z,39.00
2023-01-12T22:50:41.064Z,41.38
2023-01-12T22:53:00.609Z,43.42
2023-01-12T22:55:21.843Z,47.15
2023-01-12T22:57:41.860Z,71.40
2023-01-12T23:00:01.907Z,52.80
2023-01-12T23:02:40.711Z,58.22
2023-01-12T23:05:01.273Z,43.92
2023-01-12T23:07:21.430Z,45.95
2023-01-12T23:09:41.147Z,41.35
2023-01-12T23:12:00.743Z,29.52
2023-01-12T23:14:20.841Z,34.35
2023-01-12T23:16:40.838Z,40.97
2023-01-12T23:19:00.884Z,32.75
2023-01-12T23:21:25.818Z,27.75
2023-01-12T23:23:51.158Z,23.27
2023-01-12T23:26:14.115Z,24.17
2023-01-12T23:28:40.396Z,20.20
2023-01-12T23:31:08.403Z,22.95
2023-01-12T23:33:28.303Z,23.67
2023-01-12T23:35:48.169Z,22.90
2023-01-12T23:38:14.604Z,27.02
2023-01-12T23:40:34.496Z,22.75
2023-01-12T23:42:54.580Z,23.42
2023-01-12T23:45:14.778Z,22.20
2023-01-12T23:47:34.699Z,20.73
2023-01-12T23:49:54.488Z,17.90
2023-01-12T23:52:16.439Z,14.50
2023-01-12T23:54:37.924Z,14.68
2023-01-12T23:56:57.757Z,14.45
2023-01-12T23:59:18.144Z,13.00
